createdAt,value
2022-10-22T00:01:03.310Z,100556.34
2022-10-22T00:06:06.445Z,100554.16
2022-10-22T00:11:16.900Z,100558.38
2022-10-22T00:16:19.853Z,100556.66
2022-10-22T00:21:22.671Z,100569.00
2022-10-22T00:26:26.924Z,100569.97
2022-10-22T00:31:30.533Z,100569.91
2022-10-22T00:36:33.326Z,100570.59
2022-10-22T00:41:37.760Z,100568.31
2022-10-22T00:46:41.820Z,100569.81
2022-10-22T00:51:44.645Z,100580.41
2022-10-22T00:56:49.226Z,100575.13
2022-10-22T01:01:53.268Z,100572.78
2022-10-22T01:06:56.115Z,100571.81
2022-10-22T01:12:07.969Z,100568.03
2022-10-22T01:17:17.650Z,100577.56
2022-10-22T01:22:26.278Z,100582.31
2022-10-22T01:27:53.860Z,100585.84
2022-10-22T01:33:02.684Z,100589.44
2022-10-22T01:38:09.921Z,100587.16
2022-10-22T01:43:13.125Z,100593.38
2022-10-22T01:48:30.128Z,100590.59
2022-10-22T01:53:41.921Z,100600.25
2022-10-22T01:58:54.475Z,100602.69
2022-10-22T02:04:07.343Z,100591.72
2022-10-22T02:09:12.034Z,100583.91
2022-10-22T02:14:17.133Z,100585.78
2022-10-22T02:19:27.190Z,100574.25
2022-10-22T02:24:30.581Z,100569.53
2022-10-22T02:29:40.091Z,100562.38
2022-10-22T02:34:45.376Z,100561.50
2022-10-22T02:39:49.409Z,100558.97
2022-10-22T02:44:52.197Z,100567.50
2022-10-22T02:49:56.294Z,100577.59
2022-10-22T02:54:59.133Z,100564.09
2022-10-22T03:00:01.968Z,100569.06
2022-10-22T03:05:07.029Z,100577.47
2022-10-22T03:10:10.846Z,100575.59
2022-10-22T03:15:13.692Z,100580.72
2022-10-22T03:20:18.033Z,100592.69
2022-10-22T03:25:23.692Z,100588.22
2022-10-22T03:30:26.436Z,100592.59
2022-10-22T03:35:31.757Z,100606.22
2022-10-22T03:40:34.690Z,100606.69
2022-10-22T03:50:42.695Z,100626.59
2022-10-22T03:55:45.492Z,100629.19
2022-10-22T04:00:48.349Z,100631.19
2022-10-22T04:05:52.723Z,100638.44
2022-10-22T04:10:55.450Z,100638.09
2022-10-22T04:16:07.962Z,100642.38
2022-10-22T04:21:14.186Z,100643.09
2022-10-22T04:26:18.288Z,100645.50
2022-10-22T04:31:23.131Z,100646.50
2022-10-22T04:36:28.439Z,100640.41
2022-10-22T04:41:33.222Z,100638.97
2022-10-22T04:46:36.617Z,100638.50
2022-10-22T04:51:40.986Z,100642.66
2022-10-22T04:56:43.743Z,100643.34
2022-10-22T05:01:46.528Z,100648.81
2022-10-22T05:06:50.933Z,100640.75
2022-10-22T05:11:54.592Z,100637.34
2022-10-22T05:16:57.318Z,100644.88
2022-10-22T05:22:03.632Z,100654.00
2022-10-22T05:27:06.830Z,100662.94
2022-10-22T05:32:10.686Z,100657.50
2022-10-22T05:37:14.799Z,100667.34
2022-10-22T05:42:17.520Z,100664.84
2022-10-22T05:47:20.324Z,100666.88
2022-10-22T05:52:24.563Z,100671.53
2022-10-22T05:57:27.269Z,100660.63
2022-10-22T06:02:30.163Z,100663.56
2022-10-22T06:07:34.822Z,100675.31
2022-10-22T06:12:37.647Z,100685.13
2022-10-22T06:17:40.876Z,100686.91
2022-10-22T06:22:44.945Z,100682.25
2022-10-22T06:27:50.521Z,100694.34
2022-10-22T06:32:53.218Z,100684.88
2022-10-22T06:37:57.321Z,100694.72
2022-10-22T06:43:02.828Z,100691.97
2022-10-22T06:48:06.005Z,100705.94
2022-10-22T06:53:10.149Z,100713.91
2022-10-22T06:58:12.978Z,100719.72
2022-10-22T07:03:16.490Z,100718.63
2022-10-22T07:08:20.569Z,100726.00
2022-10-22T07:13:23.621Z,100722.94
2022-10-22T07:18:26.551Z,100728.94
2022-10-22T07:23:30.718Z,100726.88
2022-10-22T07:28:33.516Z,100736.75
2022-10-22T07:33:37.283Z,100739.88
2022-10-22T07:38:41.387Z,100748.13
2022-10-22T07:43:45.002Z,100751.53
2022-10-22T07:48:48.212Z,100759.53
2022-10-22T07:53:52.346Z,100764.84
2022-10-22T07:58:55.120Z,100756.09
2022-10-22T08:03:57.993Z,100761.59
2022-10-22T08:09:02.469Z,100752.59
2022-10-22T08:14:05.399Z,100763.88
2022-10-22T08:19:08.200Z,100769.66
2022-10-22T08:24:13.210Z,100773.31
2022-10-22T08:29:16.151Z,100778.75
2022-10-22T08:34:19.070Z,100775.16
2022-10-22T08:39:23.251Z,100786.91
2022-10-22T08:44:47.899Z,100793.38
2022-10-22T08:49:50.945Z,100793.63
2022-10-22T08:54:58.255Z,100795.75
2022-10-22T09:00:07.337Z,100802.13
2022-10-22T09:05:29.406Z,100799.81
2022-10-22T09:10:37.722Z,100800.91
2022-10-22T09:15:43.730Z,100793.69
2022-10-22T09:20:55.631Z,100794.81
2022-10-22T09:26:00.741Z,100792.75
2022-10-22T09:31:03.649Z,100793.00
2022-10-22T09:36:07.921Z,100793.03
2022-10-22T09:41:12.044Z,100802.78
2022-10-22T09:46:18.074Z,100809.25
2022-10-22T09:51:23.513Z,100810.25
2022-10-22T09:56:30.232Z,100809.03
2022-10-22T10:01:35.657Z,100799.81
2022-10-22T10:06:41.008Z,100804.47
2022-10-22T10:11:50.414Z,100803.88
2022-10-22T10:16:59.677Z,100809.47
2022-10-22T10:22:11.809Z,100804.56
2022-10-22T10:27:23.882Z,100803.81
2022-10-22T10:32:45.852Z,100794.16
2022-10-22T10:38:00.909Z,100797.50
2022-10-22T10:43:12.248Z,100795.84
2022-10-22T10:48:38.800Z,100796.81
2022-10-22T10:54:16.363Z,100801.38
2022-10-22T10:59:44.153Z,100808.25
2022-10-22T11:05:14.070Z,100808.47
2022-10-22T11:10:28.744Z,100815.63
2022-10-22T11:15:36.047Z,100811.81
2022-10-22T11:20:51.768Z,100806.25
2022-10-22T11:25:54.643Z,100807.22
2022-10-22T11:31:04.027Z,100809.06
2022-10-22T11:36:08.602Z,100811.38
2022-10-22T11:41:15.331Z,100810.97
2022-10-22T11:46:31.279Z,100807.72
2022-10-22T11:51:36.436Z,100807.59
2022-10-22T11:56:40.328Z,100803.22
2022-10-22T12:01:49.069Z,100801.44
2022-10-22T12:07:00.761Z,100806.31
2022-10-22T12:12:16.957Z,100811.91
2022-10-22T12:17:23.777Z,100812.22
2022-10-22T12:22:29.262Z,100814.78
2022-10-22T12:27:37.332Z,100818.78
2022-10-22T12:32:41.754Z,100827.69
2022-10-22T12:37:45.050Z,100817.81
2022-10-22T12:42:49.765Z,100820.13
2022-10-22T12:47:59.251Z,100813.41
2022-10-22T12:53:02.210Z,100819.72
2022-10-22T12:58:07.393Z,100816.94
2022-10-22T13:03:26.678Z,100823.47
2022-10-22T13:08:47.489Z,100825.19
2022-10-22T13:13:51.038Z,100832.31
2022-10-22T13:18:55.984Z,100832.00
2022-10-22T13:24:00.868Z,100832.75
2022-10-22T13:29:10.509Z,100820.16
2022-10-22T13:34:18.419Z,100824.00
2022-10-22T13:39:23.073Z,100813.22
2022-10-22T13:44:25.971Z,100818.88
2022-10-22T13:49:30.176Z,100813.69
2022-10-22T13:54:33.077Z,100815.25
2022-10-22T13:59:35.868Z,100809.84
2022-10-22T14:04:42.048Z,100816.06
2022-10-22T14:09:45.239Z,100820.63
2022-10-22T14:14:48.170Z,100824.44
2022-10-22T14:19:52.906Z,100825.97
2022-10-22T14:24:55.741Z,100830.56
2022-10-22T14:29:59.634Z,100826.97
2022-10-22T14:35:04.015Z,100827.47
2022-10-22T14:40:08.451Z,100829.41
2022-10-22T14:45:17.075Z,100824.19
2022-10-22T14:50:21.595Z,100827.34
2022-10-22T14:55:26.203Z,100828.91
2022-10-22T15:00:29.028Z,100830.78
2022-10-22T15:05:33.225Z,100833.09
2022-10-22T15:10:38.263Z,100856.25
2022-10-22T15:15:43.819Z,100855.75
2022-10-22T15:20:56.419Z,100859.38
2022-10-22T15:25:59.594Z,100865.63
2022-10-22T15:31:02.567Z,100879.41
2022-10-22T15:36:14.113Z,100894.41
2022-10-22T15:41:16.927Z,100896.78
2022-10-22T15:46:21.770Z,100905.59
2022-10-22T15:51:26.136Z,100905.63
2022-10-22T15:56:30.598Z,100906.34
2022-10-22T16:01:36.892Z,100917.91
2022-10-22T16:06:43.363Z,100921.72
2022-10-22T16:11:46.746Z,100929.88
2022-10-22T16:16:51.808Z,100929.25
2022-10-22T16:21:59.377Z,100921.88
2022-10-22T16:27:02.291Z,100942.16
2022-10-22T16:32:08.089Z,100948.09
2022-10-22T16:37:12.292Z,100953.31
2022-10-22T16:42:22.402Z,100956.84
2022-10-22T16:47:25.580Z,100963.91
2022-10-22T16:52:34.742Z,100969.34
2022-10-22T16:58:02.067Z,100978.06
2022-10-22T17:03:08.563Z,100979.41
2022-10-22T17:08:19.966Z,100976.69
2022-10-22T17:13:27.446Z,100983.31
2022-10-22T17:23:55.339Z,101002.19
2022-10-22T17:29:01.496Z,101007.19
2022-10-22T17:34:09.284Z,101005.91
2022-10-22T17:39:18.978Z,101005.91
2022-10-22T17:44:22.141Z,101023.00
2022-10-22T17:49:25.009Z,101030.38
2022-10-22T17:54:29.544Z,101029.31
2022-10-22T17:59:33.242Z,101039.13
2022-10-22T18:04:36.943Z,101040.44
2022-10-22T18:09:42.864Z,101036.78
2022-10-22T18:14:47.438Z,101043.44
2022-10-22T18:19:50.508Z,101047.22
2022-10-22T18:24:55.374Z,101043.78
2022-10-22T18:29:58.228Z,101047.72
2022-10-22T18:35:01.324Z,101053.75
2022-10-22T18:40:08.764Z,101047.38
2022-10-22T18:45:17.696Z,101051.50
2022-10-22T18:50:20.726Z,101056.47
2022-10-22T18:55:25.000Z,101069.50
2022-10-22T19:00:32.486Z,101057.22
2022-10-22T19:05:35.950Z,101067.44
2022-10-22T19:10:40.400Z,101073.66
2022-10-22T19:15:43.293Z,101075.41
2022-10-22T19:20:48.471Z,101080.41
2022-10-22T19:26:02.521Z,101079.94
2022-10-22T19:31:06.449Z,101089.63
2022-10-22T19:36:11.898Z,101094.09
2022-10-22T19:41:21.231Z,101103.50
2022-10-22T19:46:25.697Z,101108.91
2022-10-22T19:51:30.778Z,101104.31
2022-10-22T19:56:37.679Z,101116.81
2022-10-22T20:01:40.546Z,101118.72
2022-10-22T20:06:46.637Z,101127.75
2022-10-22T20:11:50.975Z,101130.47
2022-10-22T20:17:01.246Z,101140.06
2022-10-22T20:22:28.829Z,101151.97
2022-10-22T20:28:23.827Z,101149.53
2022-10-22T20:33:29.438Z,101158.03
2022-10-22T20:38:32.387Z,101165.56
2022-10-22T20:43:35.711Z,101167.16
2022-10-22T20:48:40.938Z,101168.53
2022-10-22T20:53:43.818Z,101167.72
2022-10-22T20:58:48.590Z,101176.72
2022-10-22T21:03:53.959Z,101174.91
2022-10-22T21:08:56.955Z,101171.13
2022-10-22T21:14:03.681Z,101169.53
2022-10-22T21:19:07.813Z,101167.44
2022-10-22T21:24:11.169Z,101164.63
2022-10-22T21:29:14.483Z,101173.31
2022-10-22T21:34:18.729Z,101180.28
2022-10-22T21:39:21.617Z,101179.00
2022-10-22T21:44:24.416Z,101184.47
2022-10-22T21:49:28.507Z,101186.56
2022-10-22T21:54:31.384Z,101195.81
2022-10-22T21:59:37.629Z,101186.94
2022-10-22T22:04:42.628Z,101197.78
2022-10-22T22:09:45.430Z,101183.94
2022-10-22T22:14:50.707Z,101187.13
2022-10-22T22:19:55.016Z,101183.53
2022-10-22T22:24:57.809Z,101182.97
2022-10-22T22:30:03.141Z,101184.34
2022-10-22T22:35:07.976Z,101189.56
2022-10-22T22:40:13.958Z,101187.97
2022-10-22T22:45:16.980Z,101188.75
2022-10-22T22:50:21.203Z,101183.09
2022-10-22T22:55:24.107Z,101179.47
2022-10-22T23:00:27.058Z,101181.56
2022-10-22T23:05:31.224Z,101187.88
2022-10-22T23:10:33.978Z,101187.75
2022-10-22T23:15:40.318Z,101183.84
2022-10-22T23:20:44.401Z,101176.75
2022-10-22T23:25:47.231Z,101192.72
2022-10-22T23:30:52.933Z,101194.28
2022-10-22T23:35:57.211Z,101185.16
2022-10-22T23:41:00.257Z,101196.66
2022-10-22T23:46:03.059Z,101199.06
2022-10-22T23:51:08.678Z,101204.66
2022-10-22T23:56:13.945Z,101202.34
